sensor_id;sensor_type;location;lat;lon;timestamp;temperature;humidity
6178;DHT22;3122;48.208;11.174;2024-01-15T00:00:31;-0.80;1.00
6178;DHT22;3122;48.208;11.174;2024-01-15T00:05:32;-0.80;1.00
6178;DHT22;3122;48.208;11.174;2024-01-15T00:10:32;-0.90;1.00
6178;DHT22;3122;48.208;11.174;2024-01-15T00:15:33;-0.90;1.00
6178;DHT22;3122;48.208;11.174;2024-01-15T00:20:33;-0.90;1.00
6178;DHT22;3122;48.208;11.174;2024-01-15T00:25:34;-0.90;1.00
6178;DHT22;3122;48.208;11.174;2024-01-15T00:30:35;-1.00;1.00
6178;DHT22;3122;48.208;11.174;2024-01-15T00:35:35;-1.30;1.00
6178;DHT22;3122;48.208;11.174;2024-01-15T00:40:36;-1.50;1.00
6178;DHT22;3122;48.208;11.174;2024-01-15T00:45:36;-1.50;1.00
6178;DHT22;3122;48.208;11.174;2024-01-15T00:50:37;-1.60;1.00
6178;DHT22;3122;48.208;11.174;2024-01-15T00:55:38;-1.60;1.00
6178;DHT22;3122;48.208;11.174;2024-01-15T01:00:39;-1.60;1.00
6178;DHT22;3122;48.208;11.174;2024-01-15T01:05:39;-1.50;1.00
6178;DHT22;3122;48.208;11.174;2024-01-15T01:10:40;-1.40;1.00
6178;DHT22;3122;48.208;11.174;2024-01-15T01:15:43;-1.50;1.00
6178;DHT22;3122;48.208;11.174;2024-01-15T01:20:43;-1.40;1.00
6178;DHT22;3122;48.208;11.174;2024-01-15T01:25:44;-1.40;1.00
6178;DHT22;3122;48.208;11.174;2024-01-15T01:30:45;-1.50;1.00
6178;DHT22;3122;48.208;11.174;2024-01-15T01:35:45;-1.50;1.00
6178;DHT22;3122;48.208;11.174;2024-01-15T01:40:47;-1.70;1.00
6178;DHT22;3122;48.208;11.174;2024-01-15T01:45:47;-1.70;1.00
6178;DHT22;3122;48.208;11.174;2024-01-15T01:50:48;-1.80;1.00
6178;DHT22;3122;48.208;11.174;2024-01-15T01:55:49;-1.90;1.00
6178;DHT22;3122;48.208;11.174;2024-01-15T02:00:50;-1.90;1.00
6178;DHT22;3122;48.208;11.174;2024-01-15T02:05:50;-2.00;1.00
6178;DHT22;3122;48.208;11.174;2024-01-15T02:10:51;-2.10;1.00
6178;DHT22;3122;48.208;11.174;2024-01-15T02:15:52;-2.20;1.00
6178;DHT22;3122;48.208;11.174;2024-01-15T02:20:52;-2.20;1.00
6178;DHT22;3122;48.208;11.174;2024-01-15T02:25:53;-2.30;1.00
6178;DHT22;3122;48.208;11.174;2024-01-15T02:30:53;-2.40;1.00
6178;DHT22;3122;48.208;11.174;2024-01-15T02:35:54;-2.40;1.00
6178;DHT22;3122;48.208;11.174;2024-01-15T02:40:54;-2.50;1.00
6178;DHT22;3122;48.208;11.174;2024-01-15T02:45:55;-2.40;1.00
6178;DHT22;3122;48.208;11.174;2024-01-15T02:50:55;-2.60;1.00
6178;DHT22;3122;48.208;11.174;2024-01-15T02:55:56;-2.50;1.00
6178;DHT22;3122;48.208;11.174;2024-01-15T03:00:57;-2.40;1.00
6178;DHT22;3122;48.208;11.174;2024-01-15T03:05:57;-2.40;1.00
6178;DHT22;3122;48.208;11.174;2024-01-15T03:10:58;-2.50;1.00
6178;DHT22;3122;48.208;11.174;2024-01-15T03:15:59;-2.60;1.00
6178;DHT22;3122;48.208;11.174;2024-01-15T03:20:59;-2.50;1.00
6178;DHT22;3122;48.208;11.174;2024-01-15T03:26:01;-2.70;1.00
6178;DHT22;3122;48.208;11.174;2024-01-15T03:31:02;-2.80;1.00
6178;DHT22;3122;48.208;11.174;2024-01-15T03:36:03;-2.90;1.00
6178;DHT22;3122;48.208;11.174;2024-01-15T03:41:03;-2.80;1.00
6178;DHT22;3122;48.208;11.174;2024-01-15T03:46:04;-2.80;1.00
6178;DHT22;3122;48.208;11.174;2024-01-15T03:51:04;-2.90;1.00
6178;DHT22;3122;48.208;11.174;2024-01-15T03:56:05;-2.80;1.00
6178;DHT22;3122;48.208;11.174;2024-01-15T04:01:12;-2.80;1.00
6178;DHT22;3122;48.208;11.174;2024-01-15T04:06:12;-2.80;1.00
6178;DHT22;3122;48.208;11.174;2024-01-15T04:11:13;-2.70;1.00
6178;DHT22;3122;48.208;11.174;2024-01-15T04:16:13;-2.60;1.00
6178;DHT22;3122;48.208;11.174;2024-01-15T04:21:14;-2.60;1.00
6178;DHT22;3122;48.208;11.174;2024-01-15T04:26:15;-2.50;1.00
6178;DHT22;3122;48.208;11.174;2024-01-15T04:31:25;-2.40;1.00
6178;DHT22;3122;48.208;11.174;2024-01-15T04:36:27;-2.30;1.00
6178;DHT22;3122;48.208;11.174;2024-01-15T04:41:27;-2.30;1.00
6178;DHT22;3122;48.208;11.174;2024-01-15T04:46:28;-2.30;1.00
6178;DHT22;3122;48.208;11.174;2024-01-15T04:51:29;-2.20;1.00
6178;DHT22;3122;48.208;11.174;2024-01-15T04:56:29;-2.10;1.00
6178;DHT22;3122;48.208;11.174;2024-01-15T05:01:34;-2.20;1.00
6178;DHT22;3122;48.208;11.174;2024-01-15T05:06:34;-2.20;1.00
6178;DHT22;3122;48.208;11.174;2024-01-15T05:11:35;-2.20;1.00
6178;DHT22;3122;48.208;11.174;2024-01-15T05:16:38;-2.20;1.00
6178;DHT22;3122;48.208;11.174;2024-01-15T05:21:39;-2.20;1.00
6178;DHT22;3122;48.208;11.174;2024-01-15T05:26:39;-2.10;1.00
6178;DHT22;3122;48.208;11.174;2024-01-15T05:31:40;-2.10;1.00
6178;DHT22;3122;48.208;11.174;2024-01-15T05:36:40;-2.10;1.00
6178;DHT22;3122;48.208;11.174;2024-01-15T05:41:41;-2.20;1.00
6178;DHT22;3122;48.208;11.174;2024-01-15T05:46:41;-2.10;1.00
6178;DHT22;3122;48.208;11.174;2024-01-15T05:51:42;-2.20;1.00
6178;DHT22;3122;48.208;11.174;2024-01-15T05:56:42;-2.20;1.00
6178;DHT22;3122;48.208;11.174;2024-01-15T06:01:43;-2.10;1.00
6178;DHT22;3122;48.208;11.174;2024-01-15T06:06:44;-2.00;1.00
6178;DHT22;3122;48.208;11.174;2024-01-15T06:11:44;-2.10;1.00
6178;DHT22;3122;48.208;11.174;2024-01-15T06:16:45;-2.10;1.00
6178;DHT22;3122;48.208;11.174;2024-01-15T06:21:45;-2.10;1.00
6178;DHT22;3122;48.208;11.174;2024-01-15T06:26:49;-2.10;1.00
6178;DHT22;3122;48.208;11.174;2024-01-15T06:31:49;-2.10;1.00
6178;DHT22;3122;48.208;11.174;2024-01-15T06:36:50;-2.10;1.00
6178;DHT22;3122;48.208;11.174;2024-01-15T06:41:51;-2.10;1.00
6178;DHT22;3122;48.208;11.174;2024-01-15T06:46:51;-2.00;1.00
6178;DHT22;3122;48.208;11.174;2024-01-15T06:51:52;-2.00;1.00
6178;DHT22;3122;48.208;11.174;2024-01-15T06:56:52;-2.00;1.00
6178;DHT22;3122;48.208;11.174;2024-01-15T07:01:53;-2.00;1.00
6178;DHT22;3122;48.208;11.174;2024-01-15T07:06:54;-1.90;1.00
6178;DHT22;3122;48.208;11.174;2024-01-15T07:11:54;-1.90;1.00
6178;DHT22;3122;48.208;11.174;2024-01-15T07:16:57;-1.90;1.00
6178;DHT22;3122;48.208;11.174;2024-01-15T07:21:57;-1.90;1.00
6178;DHT22;3122;48.208;11.174;2024-01-15T07:26:58;-1.80;1.00
6178;DHT22;3122;48.208;11.174;2024-01-15T07:31:59;-1.70;1.00
6178;DHT22;3122;48.208;11.174;2024-01-15T07:36:59;-1.80;1.00
6178;DHT22;3122;48.208;11.174;2024-01-15T07:42:00;-1.70;1.00
6178;DHT22;3122;48.208;11.174;2024-01-15T07:47:01;-1.70;1.00
6178;DHT22;3122;48.208;11.174;2024-01-15T07:52:01;-1.70;1.00
6178;DHT22;3122;48.208;11.174;2024-01-15T07:57:03;-1.70;1.00
6178;DHT22;3122;48.208;11.174;2024-01-15T08:02:04;-1.60;1.00
6178;DHT22;3122;48.208;11.174;2024-01-15T08:07:04;-1.60;1.00
6178;DHT22;3122;48.208;11.174;2024-01-15T08:12:07;-1.60;1.00
6178;DHT22;3122;48.208;11.174;2024-01-15T08:17:08;-1.50;1.00
6178;DHT22;3122;48.208;11.174;2024-01-15T08:22:08;-1.50;1.00
6178;DHT22;3122;48.208;11.174;2024-01-15T08:27:10;-1.50;1.00
6178;DHT22;3122;48.208;11.174;2024-01-15T08:32:10;-1.50;1.00
6178;DHT22;3122;48.208;11.174;2024-01-15T08:37:14;-1.50;1.00
6178;DHT22;3122;48.208;11.174;2024-01-15T08:42:15;-1.50;1.00
6178;DHT22;3122;48.208;11.174;2024-01-15T08:47:15;-1.50;1.00
6178;DHT22;3122;48.208;11.174;2024-01-15T08:52:16;-1.40;1.00
6178;DHT22;3122;48.208;11.174;2024-01-15T08:57:17;-1.30;1.00
6178;DHT22;3122;48.208;11.174;2024-01-15T09:02:17;-1.30;1.00
6178;DHT22;3122;48.208;11.174;2024-01-15T09:07:18;-1.30;1.00
6178;DHT22;3122;48.208;11.174;2024-01-15T09:12:19;-1.20;1.00
6178;DHT22;3122;48.208;11.174;2024-01-15T09:17:21;-1.20;1.00
6178;DHT22;3122;48.208;11.174;2024-01-15T09:22:23;-1.20;1.00
6178;DHT22;3122;48.208;11.174;2024-01-15T09:27:25;-1.10;1.00
6178;DHT22;3122;48.208;11.174;2024-01-15T09:32:26;-1.10;1.00
6178;DHT22;3122;48.208;11.174;2024-01-15T09:37:27;-1.10;1.00
6178;DHT22;3122;48.208;11.174;2024-01-15T09:42:28;-1.00;1.00
6178;DHT22;3122;48.208;11.174;2024-01-15T09:47:29;-1.00;1.00
6178;DHT22;3122;48.208;11.174;2024-01-15T09:52:30;-1.00;1.00
6178;DHT22;3122;48.208;11.174;2024-01-15T09:57:31;-0.90;1.00
6178;DHT22;3122;48.208;11.174;2024-01-15T10:02:33;-0.80;1.00
6178;DHT22;3122;48.208;11.174;2024-01-15T10:07:36;-0.80;1.00
6178;DHT22;3122;48.208;11.174;2024-01-15T10:12:38;-0.80;1.00
6178;DHT22;3122;48.208;11.174;2024-01-15T10:17:39;-0.70;1.00
6178;DHT22;3122;48.208;11.174;2024-01-15T10:22:41;-0.70;1.00
6178;DHT22;3122;48.208;11.174;2024-01-15T10:27:42;-0.60;1.00
6178;DHT22;3122;48.208;11.174;2024-01-15T10:33:00;-0.80;1.00
6178;DHT22;3122;48.208;11.174;2024-01-15T10:38:02;-0.80;1.00
6178;DHT22;3122;48.208;11.174;2024-01-15T10:43:03;-0.90;1.00
6178;DHT22;3122;48.208;11.174;2024-01-15T10:48:05;-0.90;1.00
6178;DHT22;3122;48.208;11.174;2024-01-15T10:53:06;-1.00;1.00
6178;DHT22;3122;48.208;11.174;2024-01-15T10:58:09;-1.00;1.00
6178;DHT22;3122;48.208;11.174;2024-01-15T11:03:10;-1.10;1.00
6178;DHT22;3122;48.208;11.174;2024-01-15T11:08:11;-1.10;1.00
6178;DHT22;3122;48.208;11.174;2024-01-15T11:13:22;-1.00;1.00
6178;DHT22;3122;48.208;11.174;2024-01-15T11:18:22;-0.80;1.00
6178;DHT22;3122;48.208;11.174;2024-01-15T11:23:44;-0.70;1.00
6178;DHT22;3122;48.208;11.174;2024-01-15T11:28:48;-0.50;1.00
6178;DHT22;3122;48.208;11.174;2024-01-15T11:33:49;-0.40;1.00
6178;DHT22;3122;48.208;11.174;2024-01-15T11:38:50;-0.30;1.00
6178;DHT22;3122;48.208;11.174;2024-01-15T11:43:52;-0.20;1.00
6178;DHT22;3122;48.208;11.174;2024-01-15T11:49:00;-0.10;1.00
6178;DHT22;3122;48.208;11.174;2024-01-15T11:54:05;0.10;1.00
6178;DHT22;3122;48.208;11.174;2024-01-15T11:59:09;0.20;1.00
6178;DHT22;3122;48.208;11.174;2024-01-15T12:04:09;0.40;1.00
6178;DHT22;3122;48.208;11.174;2024-01-15T12:09:10;0.50;1.00
6178;DHT22;3122;48.208;11.174;2024-01-15T12:14:11;0.50;1.00
6178;DHT22;3122;48.208;11.174;2024-01-15T12:19:15;0.50;1.00
6178;DHT22;3122;48.208;11.174;2024-01-15T12:24:17;0.50;1.00
6178;DHT22;3122;48.208;11.174;2024-01-15T12:29:18;0.40;1.00
6178;DHT22;3122;48.208;11.174;2024-01-15T12:34:18;0.50;1.00
6178;DHT22;3122;48.208;11.174;2024-01-15T12:39:20;0.60;1.00
6178;DHT22;3122;48.208;11.174;2024-01-15T12:44:21;0.70;1.00
6178;DHT22;3122;48.208;11.174;2024-01-15T12:49:23;0.70;1.00
6178;DHT22;3122;48.208;11.174;2024-01-15T12:54:24;0.60;1.00
6178;DHT22;3122;48.208;11.174;2024-01-15T12:59:25;0.70;1.00
6178;DHT22;3122;48.208;11.174;2024-01-15T13:04:26;0.70;1.00
6178;DHT22;3122;48.208;11.174;2024-01-15T13:09:26;0.70;1.00
6178;DHT22;3122;48.208;11.174;2024-01-15T13:14:28;0.70;1.00
6178;DHT22;3122;48.208;11.174;2024-01-15T13:19:29;0.70;1.00
6178;DHT22;3122;48.208;11.174;2024-01-15T13:24:29;0.70;1.00
6178;DHT22;3122;48.208;11.174;2024-01-15T13:29:30;0.70;1.00
6178;DHT22;3122;48.208;11.174;2024-01-15T13:34:31;0.60;1.00
6178;DHT22;3122;48.208;11.174;2024-01-15T13:39:31;0.60;1.00
6178;DHT22;3122;48.208;11.174;2024-01-15T13:44:33;0.70;1.00
6178;DHT22;3122;48.208;11.174;2024-01-15T13:49:34;0.60;1.00
6178;DHT22;3122;48.208;11.174;2024-01-15T13:54:36;0.60;1.00
6178;DHT22;3122;48.208;11.174;2024-01-15T13:59:36;0.60;1.00
6178;DHT22;3122;48.208;11.174;2024-01-15T14:04:38;0.40;1.00
6178;DHT22;3122;48.208;11.174;2024-01-15T14:09:39;0.30;1.00
6178;DHT22;3122;48.208;11.174;2024-01-15T14:14:39;0.30;1.00
6178;DHT22;3122;48.208;11.174;2024-01-15T14:19:40;0.30;1.00
6178;DHT22;3122;48.208;11.174;2024-01-15T14:24:41;0.30;1.00
6178;DHT22;3122;48.208;11.174;2024-01-15T14:29:42;0.20;1.00
6178;DHT22;3122;48.208;11.174;2024-01-15T14:34:43;0.20;1.00
6178;DHT22;3122;48.208;11.174;2024-01-15T14:39:43;0.30;1.00
6178;DHT22;3122;48.208;11.174;2024-01-15T14:44:44;0.20;1.00
6178;DHT22;3122;48.208;11.174;2024-01-15T14:49:44;0.20;1.00
6178;DHT22;3122;48.208;11.174;2024-01-15T14:54:45;0.20;1.00
6178;DHT22;3122;48.208;11.174;2024-01-15T14:59:48;0.20;1.00
6178;DHT22;3122;48.208;11.174;2024-01-15T15:04:48;0.20;1.00
6178;DHT22;3122;48.208;11.174;2024-01-15T15:09:49;0.10;1.00
6178;DHT22;3122;48.208;11.174;2024-01-15T15:14:51;0.10;1.00
6178;DHT22;3122;48.208;11.174;2024-01-15T15:19:51;0.10;1.00
6178;DHT22;3122;48.208;11.174;2024-01-15T15:24:55;0.10;1.00
6178;DHT22;3122;48.208;11.174;2024-01-15T15:29:56;0.10;1.00
6178;DHT22;3122;48.208;11.174;2024-01-15T15:34:56;0.10;1.00
6178;DHT22;3122;48.208;11.174;2024-01-15T15:39:57;0.00;1.00
6178;DHT22;3122;48.208;11.174;2024-01-15T15:44:58;-0.10;1.00
6178;DHT22;3122;48.208;11.174;2024-01-15T15:49:59;-0.10;1.00
6178;DHT22;3122;48.208;11.174;2024-01-15T15:54:59;-0.30;1.00
6178;DHT22;3122;48.208;11.174;2024-01-15T16:00:00;-0.40;1.00
6178;DHT22;3122;48.208;11.174;2024-01-15T16:05:01;-0.60;1.00
6178;DHT22;3122;48.208;11.174;2024-01-15T16:10:05;-0.50;1.00
6178;DHT22;3122;48.208;11.174;2024-01-15T16:15:26;-0.40;1.00
6178;DHT22;3122;48.208;11.174;2024-01-15T16:20:28;-0.60;1.00
6178;DHT22;3122;48.208;11.174;2024-01-15T16:25:29;-0.70;1.00
6178;DHT22;3122;48.208;11.174;2024-01-15T16:30:30;-0.60;1.00
6178;DHT22;3122;48.208;11.174;2024-01-15T16:35:31;-0.80;1.00
6178;DHT22;3122;48.208;11.174;2024-01-15T16:40:32;-0.80;1.00
6178;DHT22;3122;48.208;11.174;2024-01-15T16:45:33;-0.80;1.00
6178;DHT22;3122;48.208;11.174;2024-01-15T16:50:34;-0.60;1.00
6178;DHT22;3122;48.208;11.174;2024-01-15T16:55:35;-0.80;1.00
6178;DHT22;3122;48.208;11.174;2024-01-15T17:00:35;-0.80;1.00
6178;DHT22;3122;48.208;11.174;2024-01-15T17:05:36;-0.70;1.00
6178;DHT22;3122;48.208;11.174;2024-01-15T17:10:36;-0.60;1.00
6178;DHT22;3122;48.208;11.174;2024-01-15T17:15:37;-0.80;1.00
6178;DHT22;3122;48.208;11.174;2024-01-15T17:20:38;-0.70;1.00
6178;DHT22;3122;48.208;11.174;2024-01-15T17:25:41;-0.70;1.00
6178;DHT22;3122;48.208;11.174;2024-01-15T17:30:42;-1.50;1.00
6178;DHT22;3122;48.208;11.174;2024-01-15T17:35:51;-2.00;1.00
6178;DHT22;3122;48.208;11.174;2024-01-15T17:40:52;-2.20;1.00
6178;DHT22;3122;48.208;11.174;2024-01-15T17:45:53;-2.20;1.00
6178;DHT22;3122;48.208;11.174;2024-01-15T17:50:55;-2.20;1.00
6178;DHT22;3122;48.208;11.174;2024-01-15T17:55:56;-2.40;1.00
6178;DHT22;3122;48.208;11.174;2024-01-15T18:00:57;-2.20;1.00
6178;DHT22;3122;48.208;11.174;2024-01-15T18:05:58;-2.20;1.00
6178;DHT22;3122;48.208;11.174;2024-01-15T18:10:59;-2.20;1.00
6178;DHT22;3122;48.208;11.174;2024-01-15T18:16:00;-2.00;1.00
6178;DHT22;3122;48.208;11.174;2024-01-15T18:21:00;-1.80;1.00
6178;DHT22;3122;48.208;11.174;2024-01-15T18:26:01;-1.90;1.00
6178;DHT22;3122;48.208;11.174;2024-01-15T18:31:03;-1.70;1.00
6178;DHT22;3122;48.208;11.174;2024-01-15T18:36:06;-1.60;1.00
6178;DHT22;3122;48.208;11.174;2024-01-15T18:41:07;-1.70;1.00
6178;DHT22;3122;48.208;11.174;2024-01-15T18:46:07;-1.90;1.00
6178;DHT22;3122;48.208;11.174;2024-01-15T18:51:08;-1.90;1.00
6178;DHT22;3122;48.208;11.174;2024-01-15T18:56:09;-2.10;1.00
6178;DHT22;3122;48.208;11.174;2024-01-15T19:01:10;-2.10;1.00
6178;DHT22;3122;48.208;11.174;2024-01-15T19:06:12;-2.20;1.00
6178;DHT22;3122;48.208;11.174;2024-01-15T19:11:13;-2.30;1.00
6178;DHT22;3122;48.208;11.174;2024-01-15T19:16:13;-2.30;1.00
6178;DHT22;3122;48.208;11.174;2024-01-15T19:21:15;-2.50;1.00
6178;DHT22;3122;48.208;11.174;2024-01-15T19:26:18;-2.50;1.00
6178;DHT22;3122;48.208;11.174;2024-01-15T19:31:19;-2.50;1.00
6178;DHT22;3122;48.208;11.174;2024-01-15T19:36:23;-2.50;1.00
6178;DHT22;3122;48.208;11.174;2024-01-15T19:41:24;-2.60;1.00
6178;DHT22;3122;48.208;11.174;2024-01-15T19:46:25;-2.70;1.00
6178;DHT22;3122;48.208;11.174;2024-01-15T19:51:25;-2.70;1.00
6178;DHT22;3122;48.208;11.174;2024-01-15T19:56:26;-2.80;1.00
6178;DHT22;3122;48.208;11.174;2024-01-15T20:01:26;-2.80;1.00
6178;DHT22;3122;48.208;11.174;2024-01-15T20:06:27;-2.90;1.00
6178;DHT22;3122;48.208;11.174;2024-01-15T20:11:28;-2.90;1.00
6178;DHT22;3122;48.208;11.174;2024-01-15T20:16:29;-3.10;1.00
6178;DHT22;3122;48.208;11.174;2024-01-15T20:21:31;-3.20;1.00
6178;DHT22;3122;48.208;11.174;2024-01-15T20:26:32;-3.30;1.00
6178;DHT22;3122;48.208;11.174;2024-01-15T20:31:33;-3.20;1.00
6178;DHT22;3122;48.208;11.174;2024-01-15T20:36:33;-3.20;1.00
6178;DHT22;3122;48.208;11.174;2024-01-15T20:41:34;-3.20;1.00
6178;DHT22;3122;48.208;11.174;2024-01-15T20:46:35;-3.20;1.00
6178;DHT22;3122;48.208;11.174;2024-01-15T20:51:36;-3.20;1.00
6178;DHT22;3122;48.208;11.174;2024-01-15T20:56:36;-3.30;1.00
6178;DHT22;3122;48.208;11.174;2024-01-15T21:01:37;-3.40;1.00
6178;DHT22;3122;48.208;11.174;2024-01-15T21:06:38;-3.30;1.00
6178;DHT22;3122;48.208;11.174;2024-01-15T21:11:39;-3.20;1.00
6178;DHT22;3122;48.208;11.174;2024-01-15T21:16:39;-3.20;1.00
6178;DHT22;3122;48.208;11.174;2024-01-15T21:21:40;-3.30;1.00
6178;DHT22;3122;48.208;11.174;2024-01-15T21:26:40;-3.30;1.00
6178;DHT22;3122;48.208;11.174;2024-01-15T21:31:41;-3.30;1.00
6178;DHT22;3122;48.208;11.174;2024-01-15T21:36:42;-3.30;1.00
6178;DHT22;3122;48.208;11.174;2024-01-15T21:41:43;-3.30;1.00
6178;DHT22;3122;48.208;11.174;2024-01-15T21:46:44;-3.00;1.00
6178;DHT22;3122;48.208;11.174;2024-01-15T21:51:44;-3.10;1.00
6178;DHT22;3122;48.208;11.174;2024-01-15T21:56:45;-3.00;1.00
6178;DHT22;3122;48.208;11.174;2024-01-15T22:01:45;-3.00;1.00
6178;DHT22;3122;48.208;11.174;2024-01-15T22:06:51;-2.90;1.00
6178;DHT22;3122;48.208;11.174;2024-01-15T22:11:52;-2.80;1.00
6178;DHT22;3122;48.208;11.174;2024-01-15T22:16:52;-2.80;1.00
6178;DHT22;3122;48.208;11.174;2024-01-15T22:21:53;-2.70;1.00
6178;DHT22;3122;48.208;11.174;2024-01-15T22:26:54;-2.60;1.00
6178;DHT22;3122;48.208;11.174;2024-01-15T22:31:55;-2.60;1.00
6178;DHT22;3122;48.208;11.174;2024-01-15T22:36:56;-2.50;1.00
6178;DHT22;3122;48.208;11.174;2024-01-15T22:41:56;-2.40;1.00
6178;DHT22;3122;48.208;11.174;2024-01-15T22:46:57;-2.40;1.00
6178;DHT22;3122;48.208;11.174;2024-01-15T22:51:58;-2.40;1.00
6178;DHT22;3122;48.208;11.174;2024-01-15T22:56:58;-2.40;1.00
6178;DHT22;3122;48.208;11.174;2024-01-15T23:01:59;-2.40;1.00
6178;DHT22;3122;48.208;11.174;2024-01-15T23:07:00;-2.40;1.00
6178;DHT22;3122;48.208;11.174;2024-01-15T23:12:00;-2.40;1.00
6178;DHT22;3122;48.208;11.174;2024-01-15T23:17:01;-2.50;1.00
6178;DHT22;3122;48.208;11.174;2024-01-15T23:22:01;-2.50;1.00
6178;DHT22;3122;48.208;11.174;2024-01-15T23:27:03;-2.70;1.00
6178;DHT22;3122;48.208;11.174;2024-01-15T23:32:03;-2.70;1.00
6178;DHT22;3122;48.208;11.174;2024-01-15T23:37:04;-2.60;1.00
6178;DHT22;3122;48.208;11.174;2024-01-15T23:42:05;-2.60;1.00
6178;DHT22;3122;48.208;11.174;2024-01-15T23:47:06;-2.70;1.00
6178;DHT22;3122;48.208;11.174;2024-01-15T23:52:07;-2.70;1.00
6178;DHT22;3122;48.208;11.174;2024-01-15T23:57:07;-2.70;1.00
